EGLLKASX

Guest
Details From EGLL - London Heathrow
To KASX - John F Kennedy Mem
Flight Number -
Tags Generated
Created
Modified
Stats Distance 3,341 nm / 6,187 km
Max Altitude 0 ft / 0 m
Waypoints 5
Social Downloads 5
Likes 0
Share VATSIM

Download

Looking for another format? Having issues loading an existing format? Contact us
Advertisement - Login to hide

Notes

Generated

Route

EGLL GMN50 YTJ FESMU KASX

ID Type Via Altitude Latitude Longitude Leg Dist Tot Dist Heading (true) Name
O EGLL APT - 0 ft / 0 m 51.46477˚ -0.48695˚ - 0 nm - -
GMN50 FIX - 0 ft / 0 m 53.57760˚ -6.15223˚ 242 nm 242 nm 304° / 299° -
YTJ NDB - 0 ft / 0 m 48.79504˚ -87.16168˚ 2894 nm 3137 nm 299° / 232° TERRACE BAY NDB
FESMU FIX - 0 ft / 0 m 46.69708˚ -90.70886˚ 190 nm 3328 nm 230° / 227° -
O KASX APT - 0 ft / 0 m 46.55359˚ -90.92128˚ 12 nm 3340 nm 226° / 225° JOHN F KENNEDY MEM

Altitude Profile

Advertisement - Login to hide

Weather


0- 5 10 15 20 25 30 35+ Temperature / ° C

Clouds and Precipitation
Forecast for 2018-05-27 12:00 UTC. Updated an hour ago

Ground ~20,000 ft ~40,000 ft Winds

EGLL

Details ICAO EGLL (LHR)
Name London Heathrow
Region United Kingdom
Timezone Europe/London (UTC+1.0)
Stats Elevation 83 ft / 25 m (AMSL)
Location 51.471218° -0.460978°
Runways 2
Magnetic Variation 0.494° W

METAR

EGLL 271020Z AUTO 10005KT 050V140 9000 NCD 23/17 Q1016

Decode

TAF

TAF EGLL 270457Z 2706/2812 07008KT 9999 SCT040 PROB40 TEMPO 2706/2711 3000 TSRA BKN014 BKN025CB TEMPO 2711/2720 06015G25KT 3000 +TSRAGR BKN014 BKN025CB PROB30 2804/2810 7000 BKN008

Decode

Departure Runways

ID Width Length Bearing (true) Bearing (mag) Surface Threshold Offset Overrun Length
09L 164 ft / 50 m 12,811 ft / 3,905 m 89.64° 90.13° Asphalt 1,004 ft / 306 m 0 ft / 0 m
09R 164 ft / 50 m 12,019 ft / 3,663 m 89.67° 90.16° Asphalt 1,007 ft / 307 m 0 ft / 0 m
27L 164 ft / 50 m 12,019 ft / 3,663 m 269.71° 270.20° Asphalt 0 ft / 0 m 69 ft / 21 m
27R 164 ft / 50 m 12,811 ft / 3,905 m 269.69° 270.18° Asphalt 0 ft / 0 m 69 ft / 21 m

KASX

Details ICAO KASX
Name JOHN F KENNEDY MEM
Region United States
Timezone America/Chicago (UTC-5.0)
Stats Elevation 826 ft / 252 m (AMSL)
Location 46.548844° -90.918492°
Runways 2
Magnetic Variation 2.005° W

METAR

KASX 271024Z AUTO 00000KT M1/4SM FG VV002 09/09 A2981 RMK AO2 T00940094 $

Decode

TAF

Not found

Destination Runways

ID Width Length Bearing (true) Bearing (mag) Surface Threshold Offset Overrun Length
02 100 ft / 30 m 5,200 ft / 1,585 m 20.73° 22.73° Asphalt 0 ft / 0 m 0 ft / 0 m
13 75 ft / 23 m 3,493 ft / 1,065 m 130.61° 132.61° Asphalt 0 ft / 0 m 0 ft / 0 m
20 100 ft / 30 m 5,200 ft / 1,585 m 200.73° 202.73° Asphalt 0 ft / 0 m 0 ft / 0 m
31 75 ft / 23 m 3,493 ft / 1,065 m 310.61° 312.61° Asphalt 0 ft / 0 m 0 ft / 0 m

Popular Alternatives